sensor_id;sensor_type;location;lat;lon;timestamp;pressure;altitude;pressure_sealevel;temperature;humidity
740;BME280;354;42.694;23.336;2023-02-10T00:02:22;97073.47;;;-5.23;100.00
740;BME280;354;42.694;23.336;2023-02-10T00:04:47;97077.13;;;-5.29;100.00
740;BME280;354;42.694;23.336;2023-02-10T00:07:13;97074.16;;;-5.20;100.00
740;BME280;354;42.694;23.336;2023-02-10T00:09:38;97070.63;;;-5.17;100.00
740;BME280;354;42.694;23.336;2023-02-10T00:12:03;97072.56;;;-5.22;100.00
740;BME280;354;42.694;23.336;2023-02-10T00:14:29;97067.50;;;-5.24;100.00
740;BME280;354;42.694;23.336;2023-02-10T00:16:55;97071.69;;;-5.21;100.00
740;BME280;354;42.694;23.336;2023-02-10T00:19:23;97061.53;;;-5.24;100.00
740;BME280;354;42.694;23.336;2023-02-10T00:21:49;97071.81;;;-5.24;100.00
740;BME280;354;42.694;23.336;2023-02-10T00:24:14;97067.50;;;-5.24;100.00
740;BME280;354;42.694;23.336;2023-02-10T00:26:39;97069.31;;;-5.26;100.00
740;BME280;354;42.694;23.336;2023-02-10T00:29:05;97066.03;;;-5.30;100.00
740;BME280;354;42.694;23.336;2023-02-10T00:31:30;97055.31;;;-5.38;100.00
740;BME280;354;42.694;23.336;2023-02-10T00:33:55;97056.34;;;-5.42;100.00
740;BME280;354;42.694;23.336;2023-02-10T00:36:21;97067.16;;;-5.35;100.00
740;BME280;354;42.694;23.336;2023-02-10T00:38:48;97032.34;;;-5.41;100.00
740;BME280;354;42.694;23.336;2023-02-10T00:41:16;97055.94;;;-5.33;100.00
740;BME280;354;42.694;23.336;2023-02-10T00:43:42;97050.66;;;-5.30;100.00
740;BME280;354;42.694;23.336;2023-02-10T00:46:13;97054.41;;;-5.37;100.00
740;BME280;354;42.694;23.336;2023-02-10T00:48:39;97047.38;;;-5.33;100.00
740;BME280;354;42.694;23.336;2023-02-10T00:51:05;97049.28;;;-5.37;100.00
740;BME280;354;42.694;23.336;2023-02-10T00:53:32;97052.16;;;-5.44;100.00
740;BME280;354;42.694;23.336;2023-02-10T00:55:57;97039.97;;;-5.39;100.00
740;BME280;354;42.694;23.336;2023-02-10T00:58:23;97040.97;;;-5.42;100.00
740;BME280;354;42.694;23.336;2023-02-10T01:00:49;97037.63;;;-5.44;100.00
740;BME280;354;42.694;23.336;2023-02-10T01:03:14;97034.66;;;-5.53;100.00
740;BME280;354;42.694;23.336;2023-02-10T01:05:40;97036.94;;;-5.47;100.00
740;BME280;354;42.694;23.336;2023-02-10T01:08:06;97039.81;;;-5.55;100.00
740;BME280;354;42.694;23.336;2023-02-10T01:10:32;97032.75;;;-5.50;100.00
740;BME280;354;42.694;23.336;2023-02-10T01:13:00;97015.53;;;-5.65;100.00
740;BME280;354;42.694;23.336;2023-02-10T01:15:26;97034.78;;;-5.57;100.00
740;BME280;354;42.694;23.336;2023-02-10T01:17:52;97030.00;;;-5.64;100.00
740;BME280;354;42.694;23.336;2023-02-10T01:20:18;97012.00;;;-5.83;100.00
740;BME280;354;42.694;23.336;2023-02-10T01:22:43;97021.59;;;-5.68;100.00
740;BME280;354;42.694;23.336;2023-02-10T01:25:09;97002.75;;;-5.86;100.00
740;BME280;354;42.694;23.336;2023-02-10T01:27:34;97008.78;;;-5.87;100.00
740;BME280;354;42.694;23.336;2023-02-10T01:29:59;97017.78;;;-5.78;100.00
740;BME280;354;42.694;23.336;2023-02-10T01:32:25;97015.63;;;-5.87;100.00
740;BME280;354;42.694;23.336;2023-02-10T01:34:50;97013.09;;;-5.89;100.00
740;BME280;354;42.694;23.336;2023-02-10T01:37:16;97007.72;;;-5.83;100.00
740;BME280;354;42.694;23.336;2023-02-10T01:39:41;97017.59;;;-5.92;100.00
740;BME280;354;42.694;23.336;2023-02-10T01:42:09;96994.34;;;-6.08;100.00
740;BME280;354;42.694;23.336;2023-02-10T01:47:02;97007.53;;;-5.97;100.00
740;BME280;354;42.694;23.336;2023-02-10T01:49:30;97009.59;;;-5.86;100.00
740;BME280;354;42.694;23.336;2023-02-10T01:52:04;96998.19;;;-5.98;100.00
740;BME280;354;42.694;23.336;2023-02-10T01:54:54;96997.28;;;-5.97;100.00
740;BME280;354;42.694;23.336;2023-02-10T01:57:21;96999.78;;;-5.95;100.00
740;BME280;354;42.694;23.336;2023-02-10T01:59:48;96991.44;;;-6.00;100.00
740;BME280;354;42.694;23.336;2023-02-10T02:02:15;96975.63;;;-6.10;100.00
740;BME280;354;42.694;23.336;2023-02-10T02:07:17;96968.19;;;-6.15;100.00
740;BME280;354;42.694;23.336;2023-02-10T02:09:43;96982.91;;;-6.20;100.00
740;BME280;354;42.694;23.336;2023-02-10T02:12:29;96978.63;;;-6.19;100.00
740;BME280;354;42.694;23.336;2023-02-10T02:15:30;96980.81;;;-6.30;100.00
740;BME280;354;42.694;23.336;2023-02-10T02:34:33;96976.25;;;-6.65;100.00
740;BME280;354;42.694;23.336;2023-02-10T02:37:09;96972.09;;;-6.67;100.00
740;BME280;354;42.694;23.336;2023-02-10T02:39:36;96977.34;;;-6.70;100.00
740;BME280;354;42.694;23.336;2023-02-10T02:42:20;96965.84;;;-6.82;100.00
740;BME280;354;42.694;23.336;2023-02-10T02:44:50;96979.44;;;-6.80;100.00
740;BME280;354;42.694;23.336;2023-02-10T02:47:36;96980.28;;;-6.79;100.00
740;BME280;354;42.694;23.336;2023-02-10T02:53:17;96971.28;;;-6.90;100.00
740;BME280;354;42.694;23.336;2023-02-10T02:58:20;96978.63;;;-7.02;100.00
740;BME280;354;42.694;23.336;2023-02-10T03:00:51;96973.03;;;-7.12;100.00
740;BME280;354;42.694;23.336;2023-02-10T03:03:18;96979.00;;;-7.11;100.00
740;BME280;354;42.694;23.336;2023-02-10T03:05:44;96967.16;;;-7.14;100.00
740;BME280;354;42.694;23.336;2023-02-10T03:08:09;96964.81;;;-7.20;100.00
740;BME280;354;42.694;23.336;2023-02-10T03:10:35;96965.84;;;-7.24;100.00
740;BME280;354;42.694;23.336;2023-02-10T03:13:00;96964.16;;;-7.25;100.00
740;BME280;354;42.694;23.336;2023-02-10T03:15:26;96983.44;;;-7.17;100.00
740;BME280;354;42.694;23.336;2023-02-10T03:17:51;96977.59;;;-7.20;100.00
740;BME280;354;42.694;23.336;2023-02-10T03:20:17;96979.28;;;-7.19;100.00
740;BME280;354;42.694;23.336;2023-02-10T03:22:42;96978.81;;;-7.29;100.00
740;BME280;354;42.694;23.336;2023-02-10T03:25:08;96968.81;;;-7.35;100.00
740;BME280;354;42.694;23.336;2023-02-10T03:27:33;96964.81;;;-7.20;100.00
740;BME280;354;42.694;23.336;2023-02-10T03:29:59;96963.00;;;-7.17;100.00
740;BME280;354;42.694;23.336;2023-02-10T03:32:24;96970.91;;;-7.23;100.00
740;BME280;354;42.694;23.336;2023-02-10T03:34:50;96962.91;;;-7.15;100.00
740;BME280;354;42.694;23.336;2023-02-10T03:37:15;96978.66;;;-7.04;100.00
740;BME280;354;42.694;23.336;2023-02-10T03:39:41;96964.53;;;-7.12;100.00
740;BME280;354;42.694;23.336;2023-02-10T03:42:06;96960.75;;;-7.24;100.00
740;BME280;354;42.694;23.336;2023-02-10T03:44:32;96963.31;;;-7.24;100.00
740;BME280;354;42.694;23.336;2023-02-10T03:46:57;96945.03;;;-7.37;100.00
740;BME280;354;42.694;23.336;2023-02-10T03:49:23;96964.31;;;-7.28;100.00
740;BME280;354;42.694;23.336;2023-02-10T03:51:48;96962.16;;;-7.17;100.00
740;BME280;354;42.694;23.336;2023-02-10T03:54:14;96948.22;;;-7.30;100.00
740;BME280;354;42.694;23.336;2023-02-10T03:56:39;96960.69;;;-7.23;100.00
740;BME280;354;42.694;23.336;2023-02-10T03:59:05;96953.13;;;-7.26;100.00
740;BME280;354;42.694;23.336;2023-02-10T04:01:31;96943.28;;;-7.14;100.00
740;BME280;354;42.694;23.336;2023-02-10T04:03:57;96951.88;;;-7.16;100.00
740;BME280;354;42.694;23.336;2023-02-10T04:06:22;96951.28;;;-7.22;100.00
740;BME280;354;42.694;23.336;2023-02-10T04:08:48;96957.34;;;-7.25;100.00
740;BME280;354;42.694;23.336;2023-02-10T04:11:14;96941.88;;;-7.22;100.00
740;BME280;354;42.694;23.336;2023-02-10T04:13:40;96941.47;;;-7.33;100.00
740;BME280;354;42.694;23.336;2023-02-10T04:16:12;96950.13;;;-7.15;100.00
740;BME280;354;42.694;23.336;2023-02-10T04:18:38;96955.16;;;-7.12;100.00
740;BME280;354;42.694;23.336;2023-02-10T04:21:08;96939.50;;;-7.26;100.00
740;BME280;354;42.694;23.336;2023-02-10T04:23:33;96953.59;;;-7.16;100.00
740;BME280;354;42.694;23.336;2023-02-10T04:25:59;96953.41;;;-7.11;100.00
740;BME280;354;42.694;23.336;2023-02-10T04:28:25;96952.41;;;-7.07;100.00
740;BME280;354;42.694;23.336;2023-02-10T04:30:52;96959.53;;;-7.16;100.00
740;BME280;354;42.694;23.336;2023-02-10T04:33:17;96946.16;;;-7.22;100.00
740;BME280;354;42.694;23.336;2023-02-10T04:35:43;96947.78;;;-7.20;100.00
740;BME280;354;42.694;23.336;2023-02-10T04:38:10;96959.59;;;-7.17;100.00
740;BME280;354;42.694;23.336;2023-02-10T04:40:35;96957.69;;;-7.12;100.00
740;BME280;354;42.694;23.336;2023-02-10T04:43:01;96951.94;;;-7.17;100.00
740;BME280;354;42.694;23.336;2023-02-10T04:45:26;96963.06;;;-7.18;100.00
740;BME280;354;42.694;23.336;2023-02-10T04:47:51;96946.41;;;-7.28;100.00
740;BME280;354;42.694;23.336;2023-02-10T04:50:17;96947.16;;;-7.26;100.00
740;BME280;354;42.694;23.336;2023-02-10T04:52:42;96950.88;;;-7.33;100.00
740;BME280;354;42.694;23.336;2023-02-10T04:55:08;96962.50;;;-7.26;100.00
740;BME280;354;42.694;23.336;2023-02-10T04:57:33;96947.53;;;-7.35;100.00
740;BME280;354;42.694;23.336;2023-02-10T04:59:58;96942.44;;;-7.57;100.00
740;BME280;354;42.694;23.336;2023-02-10T05:02:24;96965.22;;;-7.53;100.00
740;BME280;354;42.694;23.336;2023-02-10T05:04:49;96953.47;;;-7.57;100.00
740;BME280;354;42.694;23.336;2023-02-10T05:07:15;96956.72;;;-7.53;100.00
740;BME280;354;42.694;23.336;2023-02-10T05:09:40;96973.97;;;-7.36;100.00
740;BME280;354;42.694;23.336;2023-02-10T05:12:05;96972.81;;;-7.28;100.00
740;BME280;354;42.694;23.336;2023-02-10T05:14:31;96977.69;;;-7.22;100.00
740;BME280;354;42.694;23.336;2023-02-10T05:16:56;96961.50;;;-7.22;100.00
740;BME280;354;42.694;23.336;2023-02-10T05:19:21;96967.03;;;-7.11;100.00
740;BME280;354;42.694;23.336;2023-02-10T05:21:47;96964.72;;;-7.17;100.00
740;BME280;354;42.694;23.336;2023-02-10T05:24:12;96974.94;;;-7.17;100.00
740;BME280;354;42.694;23.336;2023-02-10T05:26:38;97001.59;;;-7.01;100.00
740;BME280;354;42.694;23.336;2023-02-10T05:29:03;97012.72;;;-7.02;100.00
740;BME280;354;42.694;23.336;2023-02-10T05:31:28;96986.13;;;-7.20;100.00
740;BME280;354;42.694;23.336;2023-02-10T05:33:54;97006.69;;;-7.01;100.00
740;BME280;354;42.694;23.336;2023-02-10T05:36:20;97010.19;;;-7.03;100.00
740;BME280;354;42.694;23.336;2023-02-10T05:38:45;97010.16;;;-7.02;100.00
740;BME280;354;42.694;23.336;2023-02-10T05:41:31;97010.41;;;-7.08;100.00
740;BME280;354;42.694;23.336;2023-02-10T05:43:57;97010.50;;;-7.11;100.00
740;BME280;354;42.694;23.336;2023-02-10T05:46:22;97007.53;;;-7.22;100.00
740;BME280;354;42.694;23.336;2023-02-10T05:48:47;97027.75;;;-7.16;100.00
740;BME280;354;42.694;23.336;2023-02-10T05:51:13;97037.38;;;-7.23;100.00
740;BME280;354;42.694;23.336;2023-02-10T05:53:38;97031.50;;;-7.25;100.00
740;BME280;354;42.694;23.336;2023-02-10T05:56:04;97029.88;;;-7.27;100.00
740;BME280;354;42.694;23.336;2023-02-10T05:58:29;97025.72;;;-7.30;100.00
740;BME280;354;42.694;23.336;2023-02-10T06:00:57;97029.03;;;-7.28;100.00
740;BME280;354;42.694;23.336;2023-02-10T06:03:23;97040.00;;;-7.24;100.00
740;BME280;354;42.694;23.336;2023-02-10T06:05:48;97032.25;;;-7.23;100.00
740;BME280;354;42.694;23.336;2023-02-10T06:08:14;97029.41;;;-7.15;100.00
740;BME280;354;42.694;23.336;2023-02-10T06:10:39;97033.94;;;-7.00;100.00
740;BME280;354;42.694;23.336;2023-02-10T06:13:04;97035.75;;;-7.03;100.00
740;BME280;354;42.694;23.336;2023-02-10T06:15:30;97042.19;;;-6.93;100.00
740;BME280;354;42.694;23.336;2023-02-10T06:17:55;97054.16;;;-6.94;100.00
740;BME280;354;42.694;23.336;2023-02-10T06:20:20;97052.19;;;-6.87;100.00
740;BME280;354;42.694;23.336;2023-02-10T06:22:46;97061.66;;;-6.89;100.00
740;BME280;354;42.694;23.336;2023-02-10T06:25:11;97044.81;;;-6.95;100.00
740;BME280;354;42.694;23.336;2023-02-10T06:27:36;97060.81;;;-6.90;100.00
740;BME280;354;42.694;23.336;2023-02-10T06:30:02;97057.44;;;-6.68;100.00
740;BME280;354;42.694;23.336;2023-02-10T06:32:27;97061.78;;;-6.70;100.00
740;BME280;354;42.694;23.336;2023-02-10T06:34:52;97058.34;;;-6.69;100.00
740;BME280;354;42.694;23.336;2023-02-10T06:37:18;97072.66;;;-6.65;100.00
740;BME280;354;42.694;23.336;2023-02-10T06:39:43;97069.41;;;-6.48;100.00
740;BME280;354;42.694;23.336;2023-02-10T06:42:09;97067.06;;;-6.32;100.00
740;BME280;354;42.694;23.336;2023-02-10T06:44:34;97056.47;;;-6.23;100.00
740;BME280;354;42.694;23.336;2023-02-10T06:46:59;97068.19;;;-6.18;100.00
740;BME280;354;42.694;23.336;2023-02-10T06:49:25;97070.28;;;-6.27;100.00
740;BME280;354;42.694;23.336;2023-02-10T06:51:50;97054.00;;;-6.26;100.00
740;BME280;354;42.694;23.336;2023-02-10T06:54:15;97065.94;;;-6.05;100.00
740;BME280;354;42.694;23.336;2023-02-10T06:56:41;97065.94;;;-6.05;100.00
740;BME280;354;42.694;23.336;2023-02-10T06:59:11;97047.63;;;-5.96;100.00
740;BME280;354;42.694;23.336;2023-02-10T07:01:36;97082.03;;;-5.83;100.00
740;BME280;354;42.694;23.336;2023-02-10T07:04:02;97075.63;;;-5.72;100.00
740;BME280;354;42.694;23.336;2023-02-10T07:06:28;97077.69;;;-5.80;100.00
740;BME280;354;42.694;23.336;2023-02-10T07:08:53;97085.47;;;-5.63;100.00
740;BME280;354;42.694;23.336;2023-02-10T07:11:18;97067.16;;;-5.54;100.00
740;BME280;354;42.694;23.336;2023-02-10T07:13:44;97067.47;;;-5.62;100.00
740;BME280;354;42.694;23.336;2023-02-10T07:16:09;97064.88;;;-5.41;100.00
740;BME280;354;42.694;23.336;2023-02-10T07:18:39;97065.69;;;-5.41;100.00
740;BME280;354;42.694;23.336;2023-02-10T07:21:05;97056.06;;;-5.36;100.00
740;BME280;354;42.694;23.336;2023-02-10T07:23:30;97054.69;;;-5.24;100.00
740;BME280;354;42.694;23.336;2023-02-10T07:25:56;97061.88;;;-5.13;100.00
740;BME280;354;42.694;23.336;2023-02-10T07:28:22;97069.19;;;-5.04;100.00
740;BME280;354;42.694;23.336;2023-02-10T07:30:47;97065.34;;;-4.95;100.00
740;BME280;354;42.694;23.336;2023-02-10T07:33:12;97067.13;;;-4.79;100.00
740;BME280;354;42.694;23.336;2023-02-10T07:35:38;97065.75;;;-4.86;100.00
740;BME280;354;42.694;23.336;2023-02-10T07:38:03;97059.66;;;-4.83;100.00
740;BME280;354;42.694;23.336;2023-02-10T07:40:28;97040.78;;;-5.01;100.00
740;BME280;354;42.694;23.336;2023-02-10T07:42:55;97063.22;;;-4.68;100.00
740;BME280;354;42.694;23.336;2023-02-10T07:45:21;97059.81;;;-4.50;100.00
740;BME280;354;42.694;23.336;2023-02-10T07:47:47;97057.22;;;-4.50;100.00
740;BME280;354;42.694;23.336;2023-02-10T07:50:13;97060.75;;;-4.53;100.00
740;BME280;354;42.694;23.336;2023-02-10T07:52:38;97054.94;;;-4.56;100.00
740;BME280;354;42.694;23.336;2023-02-10T07:55:06;97054.78;;;-4.70;100.00
740;BME280;354;42.694;23.336;2023-02-10T07:57:32;97060.16;;;-4.58;100.00
740;BME280;354;42.694;23.336;2023-02-10T07:59:57;97065.75;;;-4.49;100.00
740;BME280;354;42.694;23.336;2023-02-10T08:02:22;97064.31;;;-4.55;100.00
740;BME280;354;42.694;23.336;2023-02-10T08:04:48;97075.53;;;-4.39;100.00
740;BME280;354;42.694;23.336;2023-02-10T08:07:13;97070.91;;;-4.32;100.00
740;BME280;354;42.694;23.336;2023-02-10T08:09:39;97063.56;;;-4.40;100.00
740;BME280;354;42.694;23.336;2023-02-10T08:12:04;97066.31;;;-4.26;100.00
740;BME280;354;42.694;23.336;2023-02-10T08:14:30;97066.31;;;-4.08;100.00
740;BME280;354;42.694;23.336;2023-02-10T08:16:57;97057.00;;;-3.93;100.00
740;BME280;354;42.694;23.336;2023-02-10T08:19:22;97060.69;;;-3.82;100.00
740;BME280;354;42.694;23.336;2023-02-10T08:21:47;97046.22;;;-4.00;100.00
740;BME280;354;42.694;23.336;2023-02-10T08:24:13;97052.31;;;-4.03;100.00
740;BME280;354;42.694;23.336;2023-02-10T08:26:38;97047.63;;;-3.94;100.00
740;BME280;354;42.694;23.336;2023-02-10T08:29:04;97049.91;;;-3.88;100.00
740;BME280;354;42.694;23.336;2023-02-10T08:31:29;97044.69;;;-3.54;100.00
740;BME280;354;42.694;23.336;2023-02-10T08:33:55;97045.28;;;-3.49;100.00
740;BME280;354;42.694;23.336;2023-02-10T08:36:21;97063.47;;;-3.36;100.00
740;BME280;354;42.694;23.336;2023-02-10T08:38:47;97052.78;;;-3.28;100.00
740;BME280;354;42.694;23.336;2023-02-10T08:41:13;97056.66;;;-3.37;100.00
740;BME280;354;42.694;23.336;2023-02-10T08:43:39;97022.63;;;-3.26;100.00
740;BME280;354;42.694;23.336;2023-02-10T08:46:05;97051.22;;;-2.99;100.00
740;BME280;354;42.694;23.336;2023-02-10T08:48:30;97046.81;;;-2.97;100.00
740;BME280;354;42.694;23.336;2023-02-10T08:50:57;97057.03;;;-2.96;100.00
740;BME280;354;42.694;23.336;2023-02-10T08:53:23;97052.88;;;-2.98;100.00
740;BME280;354;42.694;23.336;2023-02-10T08:56:00;97052.19;;;-2.86;100.00
740;BME280;354;42.694;23.336;2023-02-10T08:58:27;97048.97;;;-2.74;100.00
740;BME280;354;42.694;23.336;2023-02-10T09:00:52;97009.63;;;-3.07;100.00
740;BME280;354;42.694;23.336;2023-02-10T09:03:18;97046.06;;;-2.83;100.00
740;BME280;354;42.694;23.336;2023-02-10T09:05:43;97005.81;;;-2.70;98.74
740;BME280;354;42.694;23.336;2023-02-10T09:08:12;97033.78;;;-2.48;96.85
740;BME280;354;42.694;23.336;2023-02-10T09:10:39;97027.03;;;-2.35;93.56
740;BME280;354;42.694;23.336;2023-02-10T09:13:04;97023.41;;;-2.47;94.14
740;BME280;354;42.694;23.336;2023-02-10T09:15:30;97037.88;;;-2.44;94.21
740;BME280;354;42.694;23.336;2023-02-10T09:17:55;97011.63;;;-2.51;92.87
740;BME280;354;42.694;23.336;2023-02-10T09:20:20;97023.19;;;-2.28;92.83
740;BME280;354;42.694;23.336;2023-02-10T09:22:46;97012.94;;;-1.99;92.84
740;BME280;354;42.694;23.336;2023-02-10T09:25:13;97026.88;;;-1.73;92.13
740;BME280;354;42.694;23.336;2023-02-10T09:27:38;97021.38;;;-1.53;88.70
740;BME280;354;42.694;23.336;2023-02-10T09:30:04;97020.91;;;-1.45;85.45
740;BME280;354;42.694;23.336;2023-02-10T09:32:30;97020.16;;;-1.33;84.90
740;BME280;354;42.694;23.336;2023-02-10T09:34:55;97024.31;;;-1.30;82.58
740;BME280;354;42.694;23.336;2023-02-10T09:37:21;97018.94;;;-1.27;82.60
740;BME280;354;42.694;23.336;2023-02-10T09:39:46;97008.22;;;-1.21;81.16
740;BME280;354;42.694;23.336;2023-02-10T09:44:59;96998.13;;;-1.39;80.57
740;BME280;354;42.694;23.336;2023-02-10T09:47:40;97005.31;;;-1.29;80.35
740;BME280;354;42.694;23.336;2023-02-10T09:53:02;96998.13;;;-1.39;80.58
740;BME280;354;42.694;23.336;2023-02-10T09:55:36;96995.09;;;-1.31;79.15
740;BME280;354;42.694;23.336;2023-02-10T09:58:20;96994.34;;;-1.33;78.92
740;BME280;354;42.694;23.336;2023-02-10T10:00:52;96990.47;;;-1.26;78.32
740;BME280;354;42.694;23.336;2023-02-10T10:03:26;96984.38;;;-1.25;78.92
740;BME280;354;42.694;23.336;2023-02-10T10:06:15;96979.56;;;-1.17;78.50
740;BME280;354;42.694;23.336;2023-02-10T10:08:53;96976.28;;;-0.92;77.44
740;BME280;354;42.694;23.336;2023-02-10T10:11:24;96975.88;;;-0.86;76.90
740;BME280;354;42.694;23.336;2023-02-10T10:13:51;96965.78;;;-0.76;76.48
740;BME280;354;42.694;23.336;2023-02-10T10:16:29;96967.75;;;-0.67;77.89
740;BME280;354;42.694;23.336;2023-02-10T10:22:27;96954.63;;;-0.24;73.90
740;BME280;354;42.694;23.336;2023-02-10T10:33:00;96943.16;;;-0.33;71.81
740;BME280;354;42.694;23.336;2023-02-10T10:35:35;96943.44;;;-0.12;72.48
740;BME280;354;42.694;23.336;2023-02-10T10:38:19;96936.84;;;-0.16;71.32
740;BME280;354;42.694;23.336;2023-02-10T10:40:47;96935.38;;;-0.07;68.86
740;BME280;354;42.694;23.336;2023-02-10T10:43:21;96937.34;;;-0.23;68.45
740;BME280;354;42.694;23.336;2023-02-10T10:45:51;96935.50;;;-0.09;68.89
740;BME280;354;42.694;23.336;2023-02-10T10:48:21;96929.50;;;0.04;68.43
740;BME280;354;42.694;23.336;2023-02-10T10:50:52;96928.25;;;-0.04;67.72
740;BME280;354;42.694;23.336;2023-02-10T10:55:53;96925.53;;;0.11;66.76
740;BME280;354;42.694;23.336;2023-02-10T10:58:25;96923.38;;;0.17;67.20
740;BME280;354;42.694;23.336;2023-02-10T11:00:57;96911.88;;;0.34;66.97
740;BME280;354;42.694;23.336;2023-02-10T11:03:22;96909.13;;;0.48;66.73
740;BME280;354;42.694;23.336;2023-02-10T11:06:12;96914.09;;;0.51;66.10
740;BME280;354;42.694;23.336;2023-02-10T11:08:40;96912.03;;;0.57;65.41
740;BME280;354;42.694;23.336;2023-02-10T11:11:13;96906.53;;;0.61;65.05
740;BME280;354;42.694;23.336;2023-02-10T11:13:47;96901.66;;;0.57;64.93
740;BME280;354;42.694;23.336;2023-02-10T11:16:14;96905.53;;;0.51;64.62
740;BME280;354;42.694;23.336;2023-02-10T11:19:16;96900.34;;;0.75;64.83
740;BME280;354;42.694;23.336;2023-02-10T11:21:42;96879.31;;;0.79;64.17
740;BME280;354;42.694;23.336;2023-02-10T11:27:06;96866.53;;;0.89;63.37
740;BME280;354;42.694;23.336;2023-02-10T11:29:54;96881.50;;;0.97;62.70
740;BME280;354;42.694;23.336;2023-02-10T11:32:28;96856.63;;;0.83;62.15
740;BME280;354;42.694;23.336;2023-02-10T11:34:57;96877.81;;;1.12;62.75
740;BME280;354;42.694;23.336;2023-02-10T11:37:32;96882.47;;;1.31;62.93
740;BME280;354;42.694;23.336;2023-02-10T11:40:00;96861.16;;;1.39;60.60
740;BME280;354;42.694;23.336;2023-02-10T11:42:29;96876.38;;;1.32;59.86
740;BME280;354;42.694;23.336;2023-02-10T11:47:24;96857.97;;;1.35;60.04
740;BME280;354;42.694;23.336;2023-02-10T11:49:50;96861.06;;;1.40;59.09
740;BME280;354;42.694;23.336;2023-02-10T11:52:21;96848.88;;;1.29;58.40
740;BME280;354;42.694;23.336;2023-02-10T11:54:48;96870.00;;;1.47;58.59
740;BME280;354;42.694;23.336;2023-02-10T11:57:36;96871.44;;;1.51;58.35
740;BME280;354;42.694;23.336;2023-02-10T12:00:50;96856.59;;;1.53;58.68
740;BME280;354;42.694;23.336;2023-02-10T12:03:32;96847.16;;;1.52;57.13
740;BME280;354;42.694;23.336;2023-02-10T12:06:05;96853.56;;;1.60;57.68
740;BME280;354;42.694;23.336;2023-02-10T12:25:25;96820.78;;;1.81;57.27
740;BME280;354;42.694;23.336;2023-02-10T12:40:00;96817.25;;;1.82;57.41
740;BME280;354;42.694;23.336;2023-02-10T12:44:44;96811.81;;;1.85;56.99
740;BME280;354;42.694;23.336;2023-02-10T12:47:35;96807.09;;;2.01;56.97
740;BME280;354;42.694;23.336;2023-02-10T12:52:46;96799.66;;;2.08;55.22
740;BME280;354;42.694;23.336;2023-02-10T12:55:29;96805.09;;;2.05;55.53
740;BME280;354;42.694;23.336;2023-02-10T12:58:08;96805.66;;;2.08;56.31
740;BME280;354;42.694;23.336;2023-02-10T13:00:39;96797.78;;;2.10;56.18
740;BME280;354;42.694;23.336;2023-02-10T13:03:30;96811.00;;;2.07;56.79
740;BME280;354;42.694;23.336;2023-02-10T13:06:30;96802.38;;;2.06;56.49
740;BME280;354;42.694;23.336;2023-02-10T13:09:23;96813.44;;;2.20;55.20
740;BME280;354;42.694;23.336;2023-02-10T13:12:07;96805.28;;;2.24;55.02
740;BME280;354;42.694;23.336;2023-02-10T13:14:37;96802.63;;;2.15;54.98
740;BME280;354;42.694;23.336;2023-02-10T13:17:04;96806.38;;;2.22;54.88
740;BME280;354;42.694;23.336;2023-02-10T13:35:45;96772.28;;;2.15;54.24
740;BME280;354;42.694;23.336;2023-02-10T13:38:19;96803.75;;;2.33;55.10
740;BME280;354;42.694;23.336;2023-02-10T13:40:51;96807.66;;;2.27;55.34
740;BME280;354;42.694;23.336;2023-02-10T13:43:32;96796.91;;;2.32;55.28
740;BME280;354;42.694;23.336;2023-02-10T13:45:59;96794.91;;;2.24;56.03
740;BME280;354;42.694;23.336;2023-02-10T13:48:28;96791.25;;;2.27;56.05
740;BME280;354;42.694;23.336;2023-02-10T13:51:00;96788.19;;;2.33;56.53
740;BME280;354;42.694;23.336;2023-02-10T13:56:13;96795.25;;;2.42;55.65
740;BME280;354;42.694;23.336;2023-02-10T13:58:55;96791.56;;;2.45;55.53
740;BME280;354;42.694;23.336;2023-02-10T14:01:47;96795.59;;;2.37;55.81
740;BME280;354;42.694;23.336;2023-02-10T14:06:45;96791.94;;;2.40;55.67
740;BME280;354;42.694;23.336;2023-02-10T14:09:34;96791.97;;;2.29;56.82
740;BME280;354;42.694;23.336;2023-02-10T14:12:05;96785.59;;;2.33;56.55
740;BME280;354;42.694;23.336;2023-02-10T14:21:59;96790.06;;;2.42;58.85
740;BME280;354;42.694;23.336;2023-02-10T14:24:28;96762.91;;;2.35;59.14
740;BME280;354;42.694;23.336;2023-02-10T14:27:00;96785.75;;;2.52;58.90
740;BME280;354;42.694;23.336;2023-02-10T14:29:28;96787.66;;;2.50;59.68
740;BME280;354;42.694;23.336;2023-02-10T14:31:57;96788.84;;;2.46;59.10
740;BME280;354;42.694;23.336;2023-02-10T14:34:26;96778.72;;;2.43;59.26
740;BME280;354;42.694;23.336;2023-02-10T14:37:23;96778.00;;;2.41;59.36
740;BME280;354;42.694;23.336;2023-02-10T14:39:51;96772.56;;;2.44;58.88
740;BME280;354;42.694;23.336;2023-02-10T14:42:17;96768.69;;;2.38;59.14
740;BME280;354;42.694;23.336;2023-02-10T14:44:44;96772.94;;;2.40;58.65
740;BME280;354;42.694;23.336;2023-02-10T14:47:32;96770.22;;;2.30;59.55
740;BME280;354;42.694;23.336;2023-02-10T14:49:58;96775.09;;;2.23;60.95
740;BME280;354;42.694;23.336;2023-02-10T14:52:27;96770.03;;;2.22;61.58
740;BME280;354;42.694;23.336;2023-02-10T14:54:53;96773.22;;;2.25;60.50
740;BME280;354;42.694;23.336;2023-02-10T14:57:20;96773.47;;;2.11;61.65
740;BME280;354;42.694;23.336;2023-02-10T14:59:57;96781.38;;;2.09;61.64
740;BME280;354;42.694;23.336;2023-02-10T15:02:25;96755.81;;;1.94;61.76
740;BME280;354;42.694;23.336;2023-02-10T15:04:54;96776.56;;;2.05;62.67
740;BME280;354;42.694;23.336;2023-02-10T15:07:24;96781.03;;;2.03;62.78
740;BME280;354;42.694;23.336;2023-02-10T15:09:51;96779.72;;;2.08;64.10
740;BME280;354;42.694;23.336;2023-02-10T15:12:19;96771.72;;;2.00;64.57
740;BME280;354;42.694;23.336;2023-02-10T15:15:02;96783.84;;;2.11;64.83
740;BME280;354;42.694;23.336;2023-02-10T15:22:43;96785.16;;;2.05;65.45
740;BME280;354;42.694;23.336;2023-02-10T15:28:15;96789.06;;;2.00;66.26
740;BME280;354;42.694;23.336;2023-02-10T15:33:18;96787.63;;;2.07;64.88
740;BME280;354;42.694;23.336;2023-02-10T15:36:09;96796.13;;;1.98;65.21
740;BME280;354;42.694;23.336;2023-02-10T15:39:15;96793.91;;;1.71;65.67
740;BME280;354;42.694;23.336;2023-02-10T15:42:04;96794.13;;;1.56;67.94
740;BME280;354;42.694;23.336;2023-02-10T15:50:02;96798.94;;;1.27;68.66
740;BME280;354;42.694;23.336;2023-02-10T15:52:33;96800.75;;;1.14;70.04